createdAt,value
2018-08-08T00:02:10.880Z,80.10
2018-08-08T00:04:46.347Z,81.29
2018-08-08T00:07:21.427Z,80.26
2018-08-08T00:09:56.097Z,80.17
2018-08-08T00:12:30.745Z,81.18
2018-08-08T00:15:07.048Z,81.06
2018-08-08T00:17:43.257Z,80.35
2018-08-08T00:20:17.640Z,80.53
2018-08-08T00:22:52.088Z,80.51
2018-08-08T00:25:27.139Z,80.45
2018-08-08T00:28:02.404Z,81.05
2018-08-08T00:30:37.894Z,80.28
2018-08-08T00:33:12.792Z,79.58
2018-08-08T00:35:47.369Z,80.14
2018-08-08T00:38:21.712Z,80.87
2018-08-08T00:40:56.213Z,80.96
2018-08-08T00:43:30.750Z,80.10
2018-08-08T00:46:06.101Z,81.17
2018-08-08T00:48:40.859Z,80.82
2018-08-08T00:51:15.612Z,81.41
2018-08-08T00:53:49.976Z,81.36
2018-08-08T00:56:24.946Z,81.03
2018-08-08T00:58:59.288Z,81.46
2018-08-08T01:01:34.468Z,80.84
2018-08-08T01:04:09.361Z,81.46
2018-08-08T01:06:44.338Z,80.50
2018-08-08T01:09:19.048Z,80.94
2018-08-08T01:11:53.541Z,81.35
2018-08-08T01:14:28.308Z,80.60
2018-08-08T01:17:03.060Z,80.39
2018-08-08T01:19:37.896Z,80.25
2018-08-08T01:22:12.612Z,80.93
2018-08-08T01:24:47.924Z,80.37
2018-08-08T01:27:23.081Z,79.85
2018-08-08T01:29:57.343Z,79.64
2018-08-08T01:32:32.211Z,80.34
2018-08-08T01:35:07.539Z,79.97
2018-08-08T01:37:41.896Z,80.21
2018-08-08T01:40:17.690Z,80.27
2018-08-08T01:42:52.278Z,79.64
2018-08-08T01:45:26.988Z,79.52
2018-08-08T01:48:01.913Z,79.27
2018-08-08T01:50:36.390Z,79.64
2018-08-08T01:53:11.049Z,80.05
2018-08-08T01:55:45.881Z,79.52
2018-08-08T01:58:20.553Z,80.04
2018-08-08T02:00:56.085Z,79.55
2018-08-08T02:03:31.307Z,79.43
2018-08-08T02:06:06.161Z,79.70
2018-08-08T02:08:40.841Z,79.39
2018-08-08T02:11:15.758Z,79.41
2018-08-08T02:13:50.166Z,79.73
2018-08-08T02:16:25.069Z,79.48
2018-08-08T02:18:59.941Z,80.03
2018-08-08T02:21:34.832Z,80.29
2018-08-08T02:24:10.021Z,79.75
2018-08-08T02:26:44.596Z,79.43
2018-08-08T02:29:19.352Z,79.95
2018-08-08T02:31:54.128Z,79.59
2018-08-08T02:34:28.912Z,80.34
2018-08-08T02:37:03.740Z,80.75
2018-08-08T02:39:38.745Z,80.30
2018-08-08T02:42:13.257Z,79.92
2018-08-08T02:44:48.097Z,80.16
2018-08-08T02:47:22.553Z,80.40
2018-08-08T02:49:57.269Z,80.33
2018-08-08T02:52:31.975Z,79.92
2018-08-08T02:55:07.953Z,80.29
2018-08-08T02:57:42.573Z,80.49
2018-08-08T03:00:20.128Z,81.19
2018-08-08T03:02:54.883Z,80.63
2018-08-08T03:05:29.542Z,80.12
2018-08-08T03:08:04.089Z,80.60
2018-08-08T03:10:38.724Z,80.25
2018-08-08T03:13:13.092Z,80.92
2018-08-08T03:15:47.408Z,80.19
2018-08-08T03:18:21.917Z,80.48
2018-08-08T03:20:57.567Z,81.25
2018-08-08T03:23:32.623Z,81.14
2018-08-08T03:26:07.087Z,80.80
2018-08-08T03:28:42.513Z,81.40
2018-08-08T03:31:17.260Z,80.98
2018-08-08T03:33:52.597Z,81.15
2018-08-08T03:36:27.468Z,80.93
2018-08-08T03:39:02.215Z,80.13
2018-08-08T03:41:37.594Z,80.70
2018-08-08T03:44:11.920Z,81.61
2018-08-08T03:46:46.568Z,81.58
2018-08-08T03:49:21.585Z,80.88
2018-08-08T03:51:56.077Z,81.35
2018-08-08T03:54:31.161Z,81.01
2018-08-08T03:57:05.729Z,80.44
2018-08-08T03:59:40.185Z,81.13
2018-08-08T04:02:14.893Z,81.16
2018-08-08T04:04:50.085Z,80.38
2018-08-08T04:07:24.849Z,80.71
2018-08-08T04:09:59.644Z,80.89
2018-08-08T04:12:34.691Z,80.70
2018-08-08T04:15:12.796Z,80.62
2018-08-08T04:17:47.461Z,81.22
2018-08-08T04:20:22.116Z,80.73
2018-08-08T04:22:56.573Z,81.22
2018-08-08T04:25:31.365Z,81.06
2018-08-08T04:28:05.744Z,80.86
2018-08-08T04:30:40.640Z,80.78
2018-08-08T04:33:15.531Z,81.13
2018-08-08T04:35:49.948Z,81.36
2018-08-08T04:38:24.356Z,81.83
2018-08-08T04:40:59.115Z,81.36
2018-08-08T04:43:33.827Z,81.72
2018-08-08T04:46:08.907Z,81.13
2018-08-08T04:48:43.195Z,81.86
2018-08-08T04:51:18.049Z,81.83
2018-08-08T04:53:53.230Z,81.10
2018-08-08T04:56:27.605Z,81.11
2018-08-08T04:59:02.305Z,81.26
2018-08-08T05:01:37.084Z,81.63
2018-08-08T05:04:11.532Z,81.86
2018-08-08T05:06:46.202Z,81.97
2018-08-08T05:09:21.256Z,82.33
2018-08-08T05:11:55.743Z,81.39
2018-08-08T05:14:30.796Z,81.72
2018-08-08T05:17:06.273Z,81.65
2018-08-08T05:19:41.011Z,81.53
2018-08-08T05:22:15.886Z,81.26
2018-08-08T05:24:50.323Z,81.57
2018-08-08T05:27:25.024Z,80.53
2018-08-08T05:29:59.448Z,78.53
2018-08-08T05:32:34.380Z,79.49
2018-08-08T05:35:09.043Z,78.34
2018-08-08T05:37:43.576Z,78.08
2018-08-08T05:40:22.888Z,77.46
2018-08-08T05:42:57.148Z,77.07
2018-08-08T05:45:31.871Z,76.38
2018-08-08T05:48:06.632Z,75.56
2018-08-08T05:50:41.060Z,76.34
2018-08-08T05:53:16.112Z,76.01
2018-08-08T05:55:51.800Z,74.82
2018-08-08T05:58:26.581Z,74.53
2018-08-08T06:01:01.384Z,74.43
2018-08-08T06:03:35.714Z,73.78
2018-08-08T06:06:10.860Z,72.10
2018-08-08T06:08:45.537Z,70.90
2018-08-08T06:11:20.272Z,70.79
2018-08-08T06:13:55.380Z,71.93
2018-08-08T06:16:29.961Z,71.26
2018-08-08T06:19:05.309Z,68.66
2018-08-08T06:21:39.904Z,69.16
2018-08-08T06:24:14.280Z,68.87
2018-08-08T06:26:48.699Z,68.38
2018-08-08T06:29:23.353Z,66.94
2018-08-08T06:31:58.358Z,65.70
2018-08-08T06:34:33.084Z,63.64
2018-08-08T06:37:07.578Z,64.69
2018-08-08T06:39:42.613Z,65.30
2018-08-08T06:42:17.652Z,63.95
2018-08-08T06:44:52.464Z,60.07
2018-08-08T06:47:26.780Z,58.61
2018-08-08T06:50:01.927Z,62.39
2018-08-08T06:52:37.225Z,58.07
2018-08-08T06:55:13.153Z,56.42
2018-08-08T06:57:47.672Z,57.44
2018-08-08T07:00:25.170Z,55.40
2018-08-08T07:02:59.688Z,56.13
2018-08-08T07:05:34.128Z,53.38
2018-08-08T07:08:09.219Z,54.08
2018-08-08T07:11:20.228Z,53.91
2018-08-08T07:13:55.198Z,52.65
2018-08-08T07:16:30.053Z,54.01
2018-08-08T07:19:04.984Z,54.37
2018-08-08T07:21:40.145Z,52.92
2018-08-08T07:24:14.653Z,51.07
2018-08-08T07:26:49.091Z,53.16
2018-08-08T07:29:24.272Z,53.24
2018-08-08T07:31:59.071Z,50.96
2018-08-08T07:34:41.534Z,50.25
2018-08-08T07:37:16.056Z,51.08
2018-08-08T07:39:50.446Z,51.17
2018-08-08T07:42:25.116Z,49.72
2018-08-08T07:44:59.696Z,51.59
2018-08-08T07:47:34.620Z,49.00
2018-08-08T07:50:10.660Z,51.74
2018-08-08T07:52:45.430Z,50.47
2018-08-08T07:55:21.828Z,51.14
2018-08-08T07:57:56.160Z,50.17
2018-08-08T08:00:31.741Z,49.16
2018-08-08T08:03:06.284Z,50.94
2018-08-08T08:05:41.159Z,51.30
2018-08-08T08:08:15.792Z,49.60
2018-08-08T08:10:50.613Z,49.76
2018-08-08T08:13:25.340Z,50.73
2018-08-08T08:16:00.469Z,50.69
2018-08-08T08:18:34.919Z,49.30
2018-08-08T08:21:10.077Z,51.69
2018-08-08T08:23:44.700Z,51.52
2018-08-08T08:26:19.764Z,50.76
2018-08-08T08:28:54.290Z,49.26
2018-08-08T08:31:29.315Z,49.23
2018-08-08T08:34:03.976Z,52.11
2018-08-08T08:36:39.200Z,52.40
2018-08-08T08:39:14.383Z,49.83
2018-08-08T08:41:49.111Z,50.05
2018-08-08T08:44:23.876Z,51.06
2018-08-08T08:46:58.224Z,52.93
2018-08-08T08:49:32.795Z,51.31
2018-08-08T08:52:07.625Z,51.16
2018-08-08T08:54:43.256Z,49.58
2018-08-08T08:57:18.532Z,50.71
2018-08-08T08:59:52.836Z,50.08
2018-08-08T09:02:27.717Z,51.01
2018-08-08T09:05:02.869Z,53.07
2018-08-08T09:07:37.555Z,53.73
2018-08-08T09:10:12.554Z,48.69
2018-08-08T09:12:47.452Z,49.67
2018-08-08T09:15:22.341Z,51.30
2018-08-08T09:17:56.788Z,51.54
2018-08-08T09:20:31.148Z,51.67
2018-08-08T09:23:05.500Z,50.31
2018-08-08T09:25:44.430Z,51.08
2018-08-08T09:28:19.048Z,48.27
2018-08-08T09:30:53.578Z,49.44
2018-08-08T09:33:32.868Z,48.82
2018-08-08T09:36:07.362Z,47.37
2018-08-08T09:38:42.272Z,46.96
2018-08-08T09:41:16.621Z,46.37
2018-08-08T09:43:51.373Z,49.98
2018-08-08T09:46:25.823Z,47.31
2018-08-08T09:49:00.619Z,47.92
2018-08-08T09:51:35.172Z,47.37
2018-08-08T09:54:10.032Z,48.53
2018-08-08T09:56:44.594Z,47.37
2018-08-08T09:59:19.256Z,50.16
2018-08-08T10:01:59.000Z,53.38
2018-08-08T10:04:35.423Z,48.45
2018-08-08T10:07:10.058Z,48.18
2018-08-08T10:09:44.840Z,47.40
2018-08-08T10:12:19.751Z,46.42
2018-08-08T10:14:54.598Z,48.87
2018-08-08T10:17:29.299Z,48.70
2018-08-08T10:20:03.745Z,46.75
2018-08-08T10:22:38.484Z,44.70
2018-08-08T10:25:13.348Z,44.35
2018-08-08T10:27:47.825Z,43.20
2018-08-08T10:30:22.737Z,43.72
2018-08-08T10:32:57.463Z,43.43
2018-08-08T10:35:32.700Z,46.35
2018-08-08T10:38:07.475Z,44.10
2018-08-08T10:40:41.956Z,41.40
2018-08-08T10:43:16.359Z,46.03
2018-08-08T10:45:51.193Z,43.34
2018-08-08T10:48:25.638Z,44.86
2018-08-08T10:51:00.152Z,42.60
2018-08-08T10:53:35.376Z,42.94
2018-08-08T10:56:10.406Z,38.28
2018-08-08T10:58:45.732Z,43.95
2018-08-08T11:01:20.212Z,38.41
2018-08-08T11:03:54.531Z,43.30
2018-08-08T11:06:29.872Z,38.60
2018-08-08T11:09:07.580Z,37.10
2018-08-08T11:11:42.856Z,37.66
2018-08-08T11:14:18.285Z,37.84
2018-08-08T11:16:52.732Z,36.12
2018-08-08T11:19:28.500Z,38.31
2018-08-08T11:22:03.364Z,35.77
2018-08-08T11:24:37.924Z,37.34
2018-08-08T11:27:12.511Z,38.70
2018-08-08T11:29:47.449Z,38.84
2018-08-08T11:32:22.186Z,41.41
2018-08-08T11:34:56.764Z,40.16
2018-08-08T11:37:31.800Z,37.82
2018-08-08T11:40:06.917Z,39.69
2018-08-08T11:42:41.500Z,40.13
2018-08-08T11:45:16.497Z,44.50
2018-08-08T11:47:51.599Z,39.90
2018-08-08T11:50:26.064Z,41.95
2018-08-08T11:53:00.716Z,43.16
2018-08-08T11:55:36.095Z,40.76
2018-08-08T11:58:10.609Z,46.17
2018-08-08T12:00:45.237Z,39.10
2018-08-08T12:03:19.693Z,38.98
2018-08-08T12:05:54.092Z,43.58
2018-08-08T12:08:28.536Z,44.44
2018-08-08T12:11:03.080Z,44.64
2018-08-08T12:13:37.852Z,36.36
2018-08-08T12:16:12.885Z,34.76
2018-08-08T12:18:47.700Z,36.31
2018-08-08T12:21:22.204Z,40.58
2018-08-08T12:23:56.703Z,32.74
2018-08-08T12:29:28.332Z,35.34
2018-08-08T12:32:03.212Z,33.39
2018-08-08T12:34:37.925Z,38.49
2018-08-08T12:37:12.708Z,36.86
2018-08-08T12:39:47.649Z,31.56
2018-08-08T12:42:22.529Z,32.42
2018-08-08T12:44:57.628Z,34.51
2018-08-08T12:47:32.166Z,32.29
2018-08-08T12:50:08.299Z,31.08
2018-08-08T12:52:43.600Z,31.36
2018-08-08T12:55:18.236Z,32.87
2018-08-08T12:57:53.080Z,33.42
2018-08-08T13:00:27.615Z,36.40
2018-08-08T13:03:02.791Z,32.27
2018-08-08T13:05:37.330Z,31.44
2018-08-08T13:08:12.089Z,31.97
2018-08-08T13:10:47.133Z,38.15
2018-08-08T13:13:21.982Z,31.14
2018-08-08T13:15:56.864Z,31.51
2018-08-08T13:18:31.362Z,31.01
2018-08-08T13:21:06.234Z,34.80
2018-08-08T13:23:41.363Z,31.00
2018-08-08T13:26:16.005Z,33.55
2018-08-08T13:28:50.448Z,30.70
2018-08-08T13:31:25.235Z,31.28
2018-08-08T13:34:00.557Z,30.86
2018-08-08T13:36:35.516Z,30.58
2018-08-08T13:39:12.733Z,33.65
2018-08-08T13:41:47.693Z,32.39
2018-08-08T13:44:22.732Z,30.52
2018-08-08T13:46:57.767Z,35.66
2018-08-08T13:49:32.264Z,35.79
2018-08-08T13:52:07.188Z,29.80
2018-08-08T13:54:41.588Z,29.03
2018-08-08T13:57:16.631Z,32.26
2018-08-08T13:59:51.740Z,32.21
2018-08-08T14:02:26.313Z,31.42
2018-08-08T14:05:01.600Z,31.03
2018-08-08T14:07:36.281Z,31.23
2018-08-08T14:10:10.832Z,29.91
2018-08-08T14:12:45.255Z,32.47
2018-08-08T14:15:19.900Z,30.49
2018-08-08T14:17:54.257Z,33.16
2018-08-08T14:20:28.547Z,30.01
2018-08-08T14:23:02.971Z,33.39
2018-08-08T14:25:37.448Z,33.33
2018-08-08T14:28:11.876Z,29.55
2018-08-08T14:30:46.804Z,31.31
2018-08-08T14:33:21.240Z,31.55
2018-08-08T14:35:56.280Z,31.79
2018-08-08T14:38:30.724Z,30.47
2018-08-08T14:41:05.432Z,28.70
2018-08-08T14:43:40.219Z,33.33
2018-08-08T14:46:15.089Z,30.06
2018-08-08T14:48:49.933Z,29.56
2018-08-08T14:51:24.557Z,31.41
2018-08-08T14:54:02.528Z,29.82
2018-08-08T14:56:37.297Z,31.12
2018-08-08T14:59:11.703Z,31.63
2018-08-08T15:01:46.048Z,28.63
2018-08-08T15:04:20.775Z,32.44
2018-08-08T15:06:55.352Z,32.53
2018-08-08T15:09:29.742Z,31.65
2018-08-08T15:12:04.441Z,31.41
2018-08-08T15:14:39.323Z,28.65
2018-08-08T15:17:14.042Z,28.43
2018-08-08T15:19:49.155Z,29.21
2018-08-08T15:22:23.779Z,29.78
2018-08-08T15:24:58.665Z,30.82
2018-08-08T15:27:33.279Z,32.07
2018-08-08T15:30:09.591Z,31.00
2018-08-08T15:32:44.436Z,30.72
2018-08-08T15:35:18.980Z,31.33
2018-08-08T15:37:53.783Z,28.95
2018-08-08T15:40:28.732Z,30.95
2018-08-08T15:43:03.710Z,28.50
2018-08-08T15:45:38.782Z,28.12
2018-08-08T15:48:13.672Z,30.37
2018-08-08T15:50:48.439Z,29.13
2018-08-08T15:53:23.429Z,32.24
2018-08-08T15:55:58.144Z,30.53
2018-08-08T15:58:33.268Z,32.81
2018-08-08T16:01:08.302Z,33.18
2018-08-08T16:03:42.837Z,31.80
2018-08-08T16:06:17.709Z,31.69
2018-08-08T16:08:52.631Z,32.33
2018-08-08T16:11:27.727Z,34.38
2018-08-08T16:14:02.193Z,32.84
2018-08-08T16:16:36.875Z,32.22
2018-08-08T16:19:11.732Z,34.47
2018-08-08T16:21:46.021Z,34.16
2018-08-08T16:24:20.491Z,33.46
2018-08-08T16:26:55.553Z,35.23
2018-08-08T16:29:30.619Z,32.91
2018-08-08T16:32:05.048Z,31.46
2018-08-08T16:34:39.574Z,34.69
2018-08-08T16:37:14.365Z,33.11
2018-08-08T16:39:49.082Z,31.69
2018-08-08T16:42:23.649Z,35.54
2018-08-08T16:44:58.562Z,31.93
2018-08-08T16:47:32.876Z,34.61
2018-08-08T16:50:09.005Z,32.97
2018-08-08T16:52:44.461Z,32.83
2018-08-08T16:55:19.007Z,32.42
2018-08-08T16:57:53.601Z,33.22
2018-08-08T17:00:28.265Z,32.29
2018-08-08T17:03:02.680Z,34.33
2018-08-08T17:05:37.293Z,34.75
2018-08-08T17:08:12.449Z,34.49
2018-08-08T17:10:47.497Z,34.16
2018-08-08T17:13:22.370Z,35.47
2018-08-08T17:15:56.656Z,36.37
2018-08-08T17:18:31.136Z,33.22
2018-08-08T17:21:06.260Z,33.99
2018-08-08T17:23:41.422Z,35.77
2018-08-08T17:26:15.928Z,35.26
2018-08-08T17:28:50.449Z,36.13
2018-08-08T17:31:24.922Z,34.91
2018-08-08T17:33:59.736Z,37.02
2018-08-08T17:36:34.187Z,36.95
2018-08-08T17:39:10.296Z,38.06
2018-08-08T17:41:45.764Z,39.35
2018-08-08T17:44:20.082Z,40.15
2018-08-08T17:46:54.645Z,38.89
2018-08-08T17:49:29.160Z,38.88
2018-08-08T17:52:05.477Z,39.40
2018-08-08T17:54:39.851Z,40.66
2018-08-08T17:57:14.689Z,39.90
2018-08-08T17:59:50.341Z,41.27
2018-08-08T18:02:25.607Z,40.54
2018-08-08T18:05:00.876Z,42.58
2018-08-08T18:07:35.737Z,42.36
2018-08-08T18:10:11.334Z,43.13
2018-08-08T18:12:46.201Z,43.97
2018-08-08T18:15:20.644Z,43.73
2018-08-08T18:20:46.058Z,44.51
2018-08-08T18:23:21.146Z,44.04
2018-08-08T18:25:58.349Z,46.19
2018-08-08T18:28:33.309Z,46.37
2018-08-08T18:31:09.947Z,46.45
2018-08-08T18:33:54.472Z,46.42
2018-08-08T18:36:29.219Z,49.47
2018-08-08T18:39:06.035Z,48.82
2018-08-08T18:41:40.839Z,49.61
2018-08-08T18:44:15.751Z,50.84
2018-08-08T18:46:50.640Z,51.04
2018-08-08T18:49:26.524Z,50.37
2018-08-08T18:52:01.167Z,49.88
2018-08-08T18:54:36.097Z,50.61
2018-08-08T18:57:10.643Z,51.50
2018-08-08T18:59:46.028Z,52.38
2018-08-08T19:02:20.548Z,51.81
2018-08-08T19:04:54.954Z,52.50
2018-08-08T19:07:29.732Z,51.95
2018-08-08T19:10:05.426Z,52.47
2018-08-08T19:12:41.252Z,51.92
2018-08-08T19:15:15.580Z,49.79
2018-08-08T19:17:50.067Z,50.53
2018-08-08T19:20:24.677Z,51.33
2018-08-08T19:22:59.066Z,51.05
2018-08-08T19:25:33.589Z,51.31
2018-08-08T19:28:08.799Z,51.18
2018-08-08T19:30:44.099Z,51.97
2018-08-08T19:33:18.604Z,51.99
2018-08-08T19:35:53.417Z,52.81
2018-08-08T19:38:27.917Z,53.20
2018-08-08T19:41:02.796Z,53.02
2018-08-08T19:43:37.854Z,52.44
2018-08-08T19:46:12.536Z,53.10
2018-08-08T19:48:47.281Z,52.98
2018-08-08T19:51:22.065Z,52.61
2018-08-08T19:53:56.441Z,52.36
2018-08-08T19:56:31.021Z,51.39
2018-08-08T19:59:05.758Z,50.73
2018-08-08T20:01:40.468Z,50.89
2018-08-08T20:04:14.912Z,50.18
2018-08-08T20:06:49.360Z,50.55
2018-08-08T20:09:23.781Z,51.34
2018-08-08T20:11:59.045Z,51.55
2018-08-08T20:14:33.560Z,51.23
2018-08-08T20:17:08.025Z,51.92
2018-08-08T20:19:42.536Z,51.08
2018-08-08T20:22:18.195Z,51.95
2018-08-08T20:24:52.931Z,53.02
2018-08-08T20:27:27.861Z,52.39
2018-08-08T20:30:02.793Z,52.02
2018-08-08T20:32:37.201Z,52.33
2018-08-08T20:35:12.216Z,52.56
2018-08-08T20:37:46.760Z,52.47
2018-08-08T20:40:21.311Z,53.75
2018-08-08T20:42:55.720Z,53.18
2018-08-08T20:45:30.308Z,53.95
2018-08-08T20:48:06.269Z,53.77
2018-08-08T20:50:40.829Z,54.22
2018-08-08T20:53:15.515Z,54.94
2018-08-08T20:55:50.107Z,55.22
2018-08-08T20:58:24.963Z,55.38
2018-08-08T21:01:00.071Z,55.59
2018-08-08T21:03:34.655Z,55.26
2018-08-08T21:06:09.420Z,55.49
2018-08-08T21:08:43.809Z,56.53
2018-08-08T21:11:18.121Z,56.39
2018-08-08T21:13:53.019Z,56.71
2018-08-08T21:16:27.423Z,56.27
2018-08-08T21:19:02.739Z,57.15
2018-08-08T21:21:37.650Z,57.16
2018-08-08T21:24:12.242Z,57.55
2018-08-08T21:26:47.080Z,57.44
2018-08-08T21:29:21.575Z,57.73
2018-08-08T21:31:56.178Z,58.50
2018-08-08T21:34:30.552Z,58.29
2018-08-08T21:37:05.885Z,58.13
2018-08-08T21:39:41.132Z,58.97
2018-08-08T21:42:15.417Z,59.30
2018-08-08T21:44:50.483Z,58.81
2018-08-08T21:47:25.553Z,58.92
2018-08-08T21:50:00.613Z,59.14
2018-08-08T21:52:35.460Z,58.40
2018-08-08T21:55:21.427Z,59.76
2018-08-08T21:58:07.350Z,59.24
2018-08-08T22:00:52.865Z,59.48
2018-08-08T22:03:38.769Z,60.65
2018-08-08T22:06:24.747Z,59.83
2018-08-08T22:09:10.759Z,60.14
2018-08-08T22:11:56.828Z,60.50
2018-08-08T22:14:42.759Z,61.23
2018-08-08T22:17:28.660Z,61.26
2018-08-08T22:20:03.451Z,62.20
2018-08-08T22:22:38.676Z,62.10
2018-08-08T22:25:13.629Z,61.28
2018-08-08T22:27:48.252Z,61.96
2018-08-08T22:30:23.011Z,61.67
2018-08-08T22:32:57.588Z,61.25
2018-08-08T22:35:32.263Z,61.42
2018-08-08T22:38:06.732Z,61.49
2018-08-08T22:40:41.518Z,61.18
2018-08-08T22:43:16.301Z,62.56
2018-08-08T22:45:51.021Z,62.13
2018-08-08T22:48:25.375Z,62.22
2018-08-08T22:51:00.505Z,62.98
2018-08-08T22:53:35.380Z,62.47
2018-08-08T22:56:09.936Z,63.01
2018-08-08T22:58:44.516Z,62.52
2018-08-08T23:01:19.325Z,63.01
2018-08-08T23:03:54.424Z,62.98
2018-08-08T23:06:30.539Z,62.90
2018-08-08T23:09:08.565Z,63.04
2018-08-08T23:11:43.600Z,63.04
2018-08-08T23:14:18.518Z,62.90
2018-08-08T23:16:53.451Z,63.13
2018-08-08T23:19:27.983Z,63.08
2018-08-08T23:22:02.438Z,63.87
2018-08-08T23:24:37.192Z,64.79
2018-08-08T23:27:11.955Z,64.79
2018-08-08T23:29:46.350Z,64.88
2018-08-08T23:32:20.637Z,64.97
2018-08-08T23:34:55.064Z,64.56
2018-08-08T23:37:29.894Z,65.08
2018-08-08T23:40:04.624Z,64.86
2018-08-08T23:42:39.388Z,64.64
2018-08-08T23:45:14.175Z,64.61
2018-08-08T23:47:49.056Z,65.54
2018-08-08T23:50:23.553Z,65.31
2018-08-08T23:52:57.818Z,65.73
2018-08-08T23:55:32.752Z,66.08
2018-08-08T23:58:07.611Z,65.62
